sensor_id;sensor_type;location;lat;lon;timestamp;pressure;altitude;pressure_sealevel;temperature;humidity
19795;BME280;10057;59.402;17.866;2023-04-29T00:00:40;101274.19;;;3.81;59.49
19795;BME280;10057;59.402;17.866;2023-04-29T00:03:07;101275.94;;;3.84;59.69
19795;BME280;10057;59.402;17.866;2023-04-29T00:05:34;101271.53;;;3.83;59.82
19795;BME280;10057;59.402;17.866;2023-04-29T00:08:01;101271.53;;;3.83;59.73
19795;BME280;10057;59.402;17.866;2023-04-29T00:10:29;101268.06;;;3.84;59.83
19795;BME280;10057;59.402;17.866;2023-04-29T00:12:55;101273.31;;;3.84;59.82
19795;BME280;10057;59.402;17.866;2023-04-29T00:15:22;101261.94;;;3.83;59.60
19795;BME280;10057;59.402;17.866;2023-04-29T00:17:49;101267.16;;;3.75;59.92
19795;BME280;10057;59.402;17.866;2023-04-29T00:20:16;101259.28;;;3.72;59.97
19795;BME280;10057;59.402;17.866;2023-04-29T00:22:43;101261.06;;;3.70;59.69
19795;BME280;10057;59.402;17.866;2023-04-29T00:25:10;101268.06;;;3.68;59.56
19795;BME280;10057;59.402;17.866;2023-04-29T00:27:37;101264.56;;;3.65;59.69
19795;BME280;10057;59.402;17.866;2023-04-29T00:30:06;101257.56;;;3.62;60.02
19795;BME280;10057;59.402;17.866;2023-04-29T00:32:33;101267.19;;;3.57;59.95
19795;BME280;10057;59.402;17.866;2023-04-29T00:35:00;101267.19;;;3.54;59.96
19795;BME280;10057;59.402;17.866;2023-04-29T00:37:27;101260.19;;;3.48;60.12
19795;BME280;10057;59.402;17.866;2023-04-29T00:39:54;101263.69;;;3.52;60.03
19795;BME280;10057;59.402;17.866;2023-04-29T00:42:21;101262.81;;;3.53;60.06
19795;BME280;10057;59.402;17.866;2023-04-29T00:44:47;101265.44;;;3.53;60.15
19795;BME280;10057;59.402;17.866;2023-04-29T00:47:14;101258.44;;;3.50;59.84
19795;BME280;10057;59.402;17.866;2023-04-29T00:49:41;101267.19;;;3.48;60.23
19795;BME280;10057;59.402;17.866;2023-04-29T00:52:10;101262.81;;;3.47;60.08
19795;BME280;10057;59.402;17.866;2023-04-29T00:54:37;101261.06;;;3.44;60.27
19795;BME280;10057;59.402;17.866;2023-04-29T00:57:04;101258.44;;;3.40;60.32
19795;BME280;10057;59.402;17.866;2023-04-29T00:59:32;101253.19;;;3.38;60.19
19795;BME280;10057;59.402;17.866;2023-04-29T01:02:01;101249.69;;;3.35;60.22
19795;BME280;10057;59.402;17.866;2023-04-29T01:04:30;101254.94;;;3.33;60.29
19795;BME280;10057;59.402;17.866;2023-04-29T01:07:25;101245.31;;;3.30;60.50
19795;BME280;10057;59.402;17.866;2023-04-29T01:10:02;101254.94;;;3.28;60.32
19795;BME280;10057;59.402;17.866;2023-04-29T01:12:38;101255.78;;;3.24;60.09
19795;BME280;10057;59.402;17.866;2023-04-29T01:15:08;101255.81;;;3.18;60.48
19795;BME280;10057;59.402;17.866;2023-04-29T01:17:41;101254.91;;;3.10;60.90
19795;BME280;10057;59.402;17.866;2023-04-29T01:20:09;101250.53;;;3.03;60.72
19795;BME280;10057;59.402;17.866;2023-04-29T01:22:37;101252.28;;;2.99;61.03
19795;BME280;10057;59.402;17.866;2023-04-29T01:25:05;101247.91;;;2.98;60.67
19795;BME280;10057;59.402;17.866;2023-04-29T01:27:38;101248.75;;;2.93;60.83
19795;BME280;10057;59.402;17.866;2023-04-29T01:38:38;101248.75;;;2.77;60.80
19795;BME280;10057;59.402;17.866;2023-04-29T01:41:21;101244.34;;;2.73;61.24
19795;BME280;10057;59.402;17.866;2023-04-29T01:43:50;101242.59;;;2.72;61.10
19795;BME280;10057;59.402;17.866;2023-04-29T01:46:17;101242.56;;;2.69;61.10
19795;BME280;10057;59.402;17.866;2023-04-29T01:48:45;101239.94;;;2.66;60.85
19795;BME280;10057;59.402;17.866;2023-04-29T01:51:12;101235.56;;;2.67;60.97
19795;BME280;10057;59.402;17.866;2023-04-29T01:53:39;101228.63;;;2.67;61.19
19795;BME280;10057;59.402;17.866;2023-04-29T01:56:09;101226.88;;;2.68;61.04
19795;BME280;10057;59.402;17.866;2023-04-29T01:58:36;101229.47;;;2.65;61.16
19795;BME280;10057;59.402;17.866;2023-04-29T02:01:02;101227.72;;;2.62;61.27
19795;BME280;10057;59.402;17.866;2023-04-29T02:03:29;101232.06;;;2.57;61.57
19795;BME280;10057;59.402;17.866;2023-04-29T02:05:56;101225.94;;;2.55;61.45
19795;BME280;10057;59.402;17.866;2023-04-29T02:08:24;101218.97;;;2.55;61.27
19795;BME280;10057;59.402;17.866;2023-04-29T02:10:54;101218.09;;;2.53;61.37
19795;BME280;10057;59.402;17.866;2023-04-29T02:13:22;101219.81;;;2.53;61.39
19795;BME280;10057;59.402;17.866;2023-04-29T02:15:49;101214.59;;;2.50;61.30
19795;BME280;10057;59.402;17.866;2023-04-29T02:18:15;101211.06;;;2.49;61.57
19795;BME280;10057;59.402;17.866;2023-04-29T02:20:42;101211.97;;;2.47;61.24
19795;BME280;10057;59.402;17.866;2023-04-29T02:23:09;101202.34;;;2.47;61.64
19795;BME280;10057;59.402;17.866;2023-04-29T02:25:36;101202.34;;;2.47;61.69
19795;BME280;10057;59.402;17.866;2023-04-29T02:28:03;101204.09;;;2.51;61.23
19795;BME280;10057;59.402;17.866;2023-04-29T02:30:29;101199.72;;;2.49;61.69
19795;BME280;10057;59.402;17.866;2023-04-29T02:32:56;101205.84;;;2.49;61.65
19795;BME280;10057;59.402;17.866;2023-04-29T02:35:23;101206.75;;;2.50;61.68
19795;BME280;10057;59.402;17.866;2023-04-29T02:37:50;101194.47;;;2.49;61.97
19795;BME280;10057;59.402;17.866;2023-04-29T02:40:17;101200.59;;;2.43;61.41
19795;BME280;10057;59.402;17.866;2023-04-29T02:42:43;101190.13;;;2.43;62.06
19795;BME280;10057;59.402;17.866;2023-04-29T02:45:10;101192.72;;;2.42;61.87
19795;BME280;10057;59.402;17.866;2023-04-29T02:47:37;101193.59;;;2.42;61.86
19795;BME280;10057;59.402;17.866;2023-04-29T02:50:04;101191.00;;;2.44;62.16
19795;BME280;10057;59.402;17.866;2023-04-29T02:52:31;101180.50;;;2.44;61.91
19795;BME280;10057;59.402;17.866;2023-04-29T02:54:58;101181.38;;;2.40;62.21
19795;BME280;10057;59.402;17.866;2023-04-29T02:57:25;101181.38;;;2.40;61.99
19795;BME280;10057;59.402;17.866;2023-04-29T02:59:52;101183.13;;;2.41;62.08
19795;BME280;10057;59.402;17.866;2023-04-29T03:02:19;101178.75;;;2.41;61.98
19795;BME280;10057;59.402;17.866;2023-04-29T03:04:46;101178.75;;;2.43;62.30
19795;BME280;10057;59.402;17.866;2023-04-29T03:07:12;101172.63;;;2.42;62.17
19795;BME280;10057;59.402;17.866;2023-04-29T03:09:39;101171.78;;;2.42;62.12
19795;BME280;10057;59.402;17.866;2023-04-29T03:12:06;101172.63;;;2.42;62.35
19795;BME280;10057;59.402;17.866;2023-04-29T03:14:32;101176.13;;;2.46;61.90
19795;BME280;10057;59.402;17.866;2023-04-29T03:16:59;101177.91;;;2.48;62.25
19795;BME280;10057;59.402;17.866;2023-04-29T03:19:26;101177.03;;;2.48;62.19
19795;BME280;10057;59.402;17.866;2023-04-29T03:21:53;101167.41;;;2.48;62.10
19795;BME280;10057;59.402;17.866;2023-04-29T03:24:19;101175.31;;;2.50;62.53
19795;BME280;10057;59.402;17.866;2023-04-29T03:26:46;101179.63;;;2.49;61.99
19795;BME280;10057;59.402;17.866;2023-04-29T03:29:13;101170.91;;;2.49;62.48
19795;BME280;10057;59.402;17.866;2023-04-29T03:31:40;101169.16;;;2.48;62.19
19795;BME280;10057;59.402;17.866;2023-04-29T03:34:07;101161.31;;;2.45;62.54
19795;BME280;10057;59.402;17.866;2023-04-29T03:36:34;101170.91;;;2.44;62.26
19795;BME280;10057;59.402;17.866;2023-04-29T03:39:00;101173.50;;;2.43;62.83
19795;BME280;10057;59.402;17.866;2023-04-29T03:41:27;101162.16;;;2.39;62.55
19795;BME280;10057;59.402;17.866;2023-04-29T03:43:54;101171.75;;;2.38;62.75
19795;BME280;10057;59.402;17.866;2023-04-29T03:46:26;101161.28;;;2.42;63.02
19795;BME280;10057;59.402;17.866;2023-04-29T03:48:53;101161.28;;;2.42;63.05
19795;BME280;10057;59.402;17.866;2023-04-29T03:51:25;101157.81;;;2.41;62.90
19795;BME280;10057;59.402;17.866;2023-04-29T03:53:53;101153.47;;;2.43;62.73
19795;BME280;10057;59.402;17.866;2023-04-29T03:56:21;101148.22;;;2.46;62.90
19795;BME280;10057;59.402;17.866;2023-04-29T03:58:48;101153.47;;;2.48;62.80
19795;BME280;10057;59.402;17.866;2023-04-29T04:01:15;101143.84;;;2.53;63.26
19795;BME280;10057;59.402;17.866;2023-04-29T04:03:42;101146.50;;;2.59;63.15
19795;BME280;10057;59.402;17.866;2023-04-29T04:06:09;101150.84;;;2.63;62.89
19795;BME280;10057;59.402;17.866;2023-04-29T04:08:35;101145.63;;;2.66;63.15
19795;BME280;10057;59.402;17.866;2023-04-29T04:11:02;101129.94;;;2.68;63.15
19795;BME280;10057;59.402;17.866;2023-04-29T04:13:30;101139.53;;;2.72;63.12
19795;BME280;10057;59.402;17.866;2023-04-29T04:15:56;101131.69;;;2.70;63.25
19795;BME280;10057;59.402;17.866;2023-04-29T04:18:23;101139.53;;;2.67;63.32
19795;BME280;10057;59.402;17.866;2023-04-29T04:20:50;101136.91;;;2.61;63.65
19795;BME280;10057;59.402;17.866;2023-04-29T04:23:16;101133.41;;;2.62;63.44
19795;BME280;10057;59.402;17.866;2023-04-29T04:25:45;101140.38;;;2.66;63.91
19795;BME280;10057;59.402;17.866;2023-04-29T04:28:12;101137.78;;;2.71;63.95
19795;BME280;10057;59.402;17.866;2023-04-29T04:30:38;101136.06;;;2.74;64.02
19795;BME280;10057;59.402;17.866;2023-04-29T04:33:05;101132.53;;;2.80;63.88
19795;BME280;10057;59.402;17.866;2023-04-29T04:35:32;101135.19;;;2.88;63.69
19795;BME280;10057;59.402;17.866;2023-04-29T04:37:59;101126.47;;;2.95;63.88
19795;BME280;10057;59.402;17.866;2023-04-29T04:40:25;101127.34;;;3.01;63.93
19795;BME280;10057;59.402;17.866;2023-04-29T04:42:53;101122.06;;;3.06;64.07
19795;BME280;10057;59.402;17.866;2023-04-29T04:45:20;101125.56;;;3.13;64.05
19795;BME280;10057;59.402;17.866;2023-04-29T04:47:47;101126.44;;;3.19;64.14
19795;BME280;10057;59.402;17.866;2023-04-29T04:50:14;101124.69;;;3.24;63.87
19795;BME280;10057;59.402;17.866;2023-04-29T04:52:41;101122.06;;;3.32;64.05
19795;BME280;10057;59.402;17.866;2023-04-29T04:55:08;101117.69;;;3.39;64.10
19795;BME280;10057;59.402;17.866;2023-04-29T04:57:35;101117.66;;;3.45;64.13
19795;BME280;10057;59.402;17.866;2023-04-29T05:00:02;101119.41;;;3.53;64.23
19795;BME280;10057;59.402;17.866;2023-04-29T05:02:29;101116.75;;;3.63;64.46
19795;BME280;10057;59.402;17.866;2023-04-29T05:04:56;101118.47;;;3.73;64.30
19795;BME280;10057;59.402;17.866;2023-04-29T05:07:23;101111.41;;;3.86;64.24
19795;BME280;10057;59.402;17.866;2023-04-29T05:09:50;101116.59;;;3.99;64.15
19795;BME280;10057;59.402;17.866;2023-04-29T05:12:17;101110.44;;;4.11;64.33
19795;BME280;10057;59.402;17.866;2023-04-29T05:14:44;101102.50;;;4.20;64.13
19795;BME280;10057;59.402;17.866;2023-04-29T05:17:11;101105.09;;;4.30;64.19
19795;BME280;10057;59.402;17.866;2023-04-29T05:19:37;101100.66;;;4.39;63.88
19795;BME280;10057;59.402;17.866;2023-04-29T05:22:04;101099.69;;;4.51;64.24
19795;BME280;10057;59.402;17.866;2023-04-29T05:24:31;101092.63;;;4.62;64.16
19795;BME280;10057;59.402;17.866;2023-04-29T05:26:58;101082.91;;;4.70;63.90
19795;BME280;10057;59.402;17.866;2023-04-29T05:29:24;101082.84;;;4.83;63.71
19795;BME280;10057;59.402;17.866;2023-04-29T05:31:52;101082.78;;;4.90;63.55
19795;BME280;10057;59.402;17.866;2023-04-29T05:34:19;101080.94;;;4.98;63.94
19795;BME280;10057;59.402;17.866;2023-04-29T05:36:45;101070.38;;;5.05;63.17
19795;BME280;10057;59.402;17.866;2023-04-29T05:39:12;101075.53;;;5.12;63.30
19795;BME280;10057;59.402;17.866;2023-04-29T05:41:39;101072.88;;;5.20;63.64
19795;BME280;10057;59.402;17.866;2023-04-29T05:44:06;101065.78;;;5.27;63.49
19795;BME280;10057;59.402;17.866;2023-04-29T05:46:32;101070.06;;;5.35;63.06
19795;BME280;10057;59.402;17.866;2023-04-29T05:48:59;101071.75;;;5.44;63.36
19795;BME280;10057;59.402;17.866;2023-04-29T05:51:26;101065.50;;;5.51;62.82
19795;BME280;10057;59.402;17.866;2023-04-29T05:53:54;101055.75;;;5.61;63.21
19795;BME280;10057;59.402;17.866;2023-04-29T05:56:20;101063.56;;;5.68;63.10
19795;BME280;10057;59.402;17.866;2023-04-29T05:58:47;101059.06;;;5.77;63.20
19795;BME280;10057;59.402;17.866;2023-04-29T06:01:14;101049.34;;;5.82;63.22
19795;BME280;10057;59.402;17.866;2023-04-29T06:03:42;101044.03;;;5.86;63.05
19795;BME280;10057;59.402;17.866;2023-04-29T06:06:09;101045.72;;;5.93;62.87
19795;BME280;10057;59.402;17.866;2023-04-29T06:08:37;101050.91;;;5.98;62.79
19795;BME280;10057;59.402;17.866;2023-04-29T06:11:04;101038.56;;;6.03;62.92
19795;BME280;10057;59.402;17.866;2023-04-29T06:13:31;101048.09;;;6.12;62.84
19795;BME280;10057;59.402;17.866;2023-04-29T06:15:58;101040.13;;;6.16;62.81
19795;BME280;10057;59.402;17.866;2023-04-29T06:18:25;101039.19;;;6.21;63.23
19795;BME280;10057;59.402;17.866;2023-04-29T06:20:52;101036.44;;;6.30;63.00
19795;BME280;10057;59.402;17.866;2023-04-29T06:23:19;101036.34;;;6.36;62.96
19795;BME280;10057;59.402;17.866;2023-04-29T06:25:45;101029.16;;;6.46;63.25
19795;BME280;10057;59.402;17.866;2023-04-29T06:28:12;101029.06;;;6.53;62.77
19795;BME280;10057;59.402;17.866;2023-04-29T06:30:39;101035.91;;;6.63;62.49
19795;BME280;10057;59.402;17.866;2023-04-29T06:33:05;101031.34;;;6.73;62.26
19795;BME280;10057;59.402;17.866;2023-04-29T06:35:38;101033.88;;;6.81;62.34
19795;BME280;10057;59.402;17.866;2023-04-29T06:38:05;101018.81;;;6.87;62.46
19795;BME280;10057;59.402;17.866;2023-04-29T06:40:34;101017.81;;;6.93;62.09
19795;BME280;10057;59.402;17.866;2023-04-29T06:43:01;101024.72;;;7.00;62.31
19795;BME280;10057;59.402;17.866;2023-04-29T06:45:28;101021.06;;;7.07;61.68
19795;BME280;10057;59.402;17.866;2023-04-29T06:47:55;101013.91;;;7.16;62.03
19795;BME280;10057;59.402;17.866;2023-04-29T06:50:22;101023.38;;;7.26;61.94
19795;BME280;10057;59.402;17.866;2023-04-29T06:52:49;101017.84;;;7.38;61.92
19795;BME280;10057;59.402;17.866;2023-04-29T06:55:15;101014.97;;;7.50;61.66
19795;BME280;10057;59.402;17.866;2023-04-29T06:57:42;101006.84;;;7.61;61.60
19795;BME280;10057;59.402;17.866;2023-04-29T07:00:09;101001.25;;;7.75;61.28
19795;BME280;10057;59.402;17.866;2023-04-29T07:02:37;101006.22;;;7.90;61.02
19795;BME280;10057;59.402;17.866;2023-04-29T07:05:05;101005.06;;;8.03;60.69
19795;BME280;10057;59.402;17.866;2023-04-29T07:07:32;101004.75;;;8.16;60.70
19795;BME280;10057;59.402;17.866;2023-04-29T07:09:58;100993.03;;;8.27;60.58
19795;BME280;10057;59.402;17.866;2023-04-29T07:12:25;100995.38;;;8.41;60.25
19795;BME280;10057;59.402;17.866;2023-04-29T07:14:52;100994.16;;;8.54;60.15
19795;BME280;10057;59.402;17.866;2023-04-29T07:17:18;100996.44;;;8.70;59.42
19795;BME280;10057;59.402;17.866;2023-04-29T07:19:46;100994.34;;;8.83;59.21
19795;BME280;10057;59.402;17.866;2023-04-29T07:22:12;100994.06;;;8.93;58.66
19795;BME280;10057;59.402;17.866;2023-04-29T07:24:39;100987.56;;;9.05;58.54
19795;BME280;10057;59.402;17.866;2023-04-29T07:27:06;100986.47;;;9.14;57.80
19795;BME280;10057;59.402;17.866;2023-04-29T07:29:33;100984.47;;;9.22;57.94
19795;BME280;10057;59.402;17.866;2023-04-29T07:32:00;100977.28;;;9.27;57.32
19795;BME280;10057;59.402;17.866;2023-04-29T07:34:26;100968.31;;;9.31;56.72
19795;BME280;10057;59.402;17.866;2023-04-29T07:36:53;100962.88;;;9.37;56.84
19795;BME280;10057;59.402;17.866;2023-04-29T07:39:20;100968.78;;;9.45;57.47
19795;BME280;10057;59.402;17.866;2023-04-29T07:41:46;100968.56;;;9.53;56.58
19795;BME280;10057;59.402;17.866;2023-04-29T07:44:13;100969.31;;;9.58;56.06
19795;BME280;10057;59.402;17.866;2023-04-29T07:46:40;100970.00;;;9.65;55.79
19795;BME280;10057;59.402;17.866;2023-04-29T07:49:07;100962.78;;;9.70;55.89
19795;BME280;10057;59.402;17.866;2023-04-29T07:51:34;100958.13;;;9.78;55.73
19795;BME280;10057;59.402;17.866;2023-04-29T07:54:00;100956.97;;;9.87;55.22
19795;BME280;10057;59.402;17.866;2023-04-29T07:56:27;100950.53;;;9.95;54.66
19795;BME280;10057;59.402;17.866;2023-04-29T07:58:54;100952.06;;;10.03;54.29
19795;BME280;10057;59.402;17.866;2023-04-29T08:01:21;100954.47;;;10.10;54.13
19795;BME280;10057;59.402;17.866;2023-04-29T08:03:48;100960.44;;;10.17;54.28
19795;BME280;10057;59.402;17.866;2023-04-29T08:06:15;100956.09;;;10.14;54.02
19795;BME280;10057;59.402;17.866;2023-04-29T08:08:43;100955.22;;;10.14;53.58
19795;BME280;10057;59.402;17.866;2023-04-29T08:11:19;100968.47;;;10.14;53.32
19795;BME280;10057;59.402;17.866;2023-04-29T08:13:47;100973.09;;;10.09;53.32
19795;BME280;10057;59.402;17.866;2023-04-29T08:16:14;100963.59;;;10.02;52.56
19795;BME280;10057;59.402;17.866;2023-04-29T08:18:41;100971.63;;;9.99;52.91
19795;BME280;10057;59.402;17.866;2023-04-29T08:21:08;100951.31;;;9.97;52.43
19795;BME280;10057;59.402;17.866;2023-04-29T08:23:37;100942.47;;;9.99;52.45
19795;BME280;10057;59.402;17.866;2023-04-29T08:26:04;100941.47;;;10.03;52.36
19795;BME280;10057;59.402;17.866;2023-04-29T08:28:31;100943.78;;;10.12;52.63
19795;BME280;10057;59.402;17.866;2023-04-29T08:30:58;100933.66;;;10.25;52.53
19795;BME280;10057;59.402;17.866;2023-04-29T08:33:25;100934.00;;;10.42;52.61
19795;BME280;10057;59.402;17.866;2023-04-29T08:35:58;100923.00;;;10.54;52.40
19795;BME280;10057;59.402;17.866;2023-04-29T08:38:29;100923.56;;;10.64;51.79
19795;BME280;10057;59.402;17.866;2023-04-29T08:40:56;100926.88;;;10.71;51.16
19795;BME280;10057;59.402;17.866;2023-04-29T08:43:24;100927.53;;;10.77;51.13
19795;BME280;10057;59.402;17.866;2023-04-29T08:45:52;100922.69;;;10.88;50.86
19795;BME280;10057;59.402;17.866;2023-04-29T08:48:20;100918.78;;;10.99;50.81
19795;BME280;10057;59.402;17.866;2023-04-29T08:50:46;100920.19;;;11.09;50.56
19795;BME280;10057;59.402;17.866;2023-04-29T08:53:13;100904.78;;;11.19;49.76
19795;BME280;10057;59.402;17.866;2023-04-29T08:55:45;100897.72;;;11.18;49.36
19795;BME280;10057;59.402;17.866;2023-04-29T08:58:13;100902.16;;;11.17;49.24
19795;BME280;10057;59.402;17.866;2023-04-29T09:00:42;100890.88;;;11.12;48.49
19795;BME280;10057;59.402;17.866;2023-04-29T09:03:34;100893.81;;;11.04;48.72
19795;BME280;10057;59.402;17.866;2023-04-29T09:06:04;100889.63;;;10.97;48.80
19795;BME280;10057;59.402;17.866;2023-04-29T09:08:32;100889.97;;;10.88;48.59
19795;BME280;10057;59.402;17.866;2023-04-29T09:10:59;100892.91;;;10.80;48.70
19795;BME280;10057;59.402;17.866;2023-04-29T09:13:28;100898.44;;;10.74;48.75
19795;BME280;10057;59.402;17.866;2023-04-29T09:15:56;100894.19;;;10.68;48.80
19795;BME280;10057;59.402;17.866;2023-04-29T09:18:45;100888.13;;;10.65;48.78
19795;BME280;10057;59.402;17.866;2023-04-29T09:21:28;100894.47;;;10.61;48.53
19795;BME280;10057;59.402;17.866;2023-04-29T09:23:59;100888.31;;;10.60;48.89
19795;BME280;10057;59.402;17.866;2023-04-29T09:26:26;100875.84;;;10.62;48.76
19795;BME280;10057;59.402;17.866;2023-04-29T09:29:13;100866.63;;;10.73;49.16
19795;BME280;10057;59.402;17.866;2023-04-29T09:31:41;100871.69;;;10.80;48.93
19795;BME280;10057;59.402;17.866;2023-04-29T09:34:09;100859.03;;;10.87;48.97
19795;BME280;10057;59.402;17.866;2023-04-29T09:36:48;100859.00;;;10.88;48.32
19795;BME280;10057;59.402;17.866;2023-04-29T09:39:16;100853.78;;;10.85;48.62
19795;BME280;10057;59.402;17.866;2023-04-29T09:44:17;100847.63;;;10.85;48.02
19795;BME280;10057;59.402;17.866;2023-04-29T09:47:04;100843.47;;;10.78;47.98
19795;BME280;10057;59.402;17.866;2023-04-29T09:49:41;100830.59;;;10.67;47.82
19795;BME280;10057;59.402;17.866;2023-04-29T09:52:12;100835.19;;;10.62;47.89
19795;BME280;10057;59.402;17.866;2023-04-29T09:54:40;100835.28;;;10.59;48.26
19795;BME280;10057;59.402;17.866;2023-04-29T09:57:09;100826.53;;;10.57;47.64
19795;BME280;10057;59.402;17.866;2023-04-29T09:59:38;100822.94;;;10.58;47.72
19795;BME280;10057;59.402;17.866;2023-04-29T10:02:17;100821.81;;;10.65;48.11
19795;BME280;10057;59.402;17.866;2023-04-29T10:04:46;100810.91;;;10.73;48.07
19795;BME280;10057;59.402;17.866;2023-04-29T10:07:15;100801.91;;;10.77;47.86
19795;BME280;10057;59.402;17.866;2023-04-29T10:09:46;100805.44;;;10.77;47.86
19795;BME280;10057;59.402;17.866;2023-04-29T10:12:16;100798.50;;;10.73;47.67
19795;BME280;10057;59.402;17.866;2023-04-29T10:14:56;100802.25;;;10.67;47.62
19795;BME280;10057;59.402;17.866;2023-04-29T10:17:43;100799.53;;;10.69;47.81
19795;BME280;10057;59.402;17.866;2023-04-29T10:20:21;100797.59;;;10.74;48.07
19795;BME280;10057;59.402;17.866;2023-04-29T10:22:53;100785.00;;;10.79;47.78
19795;BME280;10057;59.402;17.866;2023-04-29T10:25:24;100779.66;;;10.81;47.55
19795;BME280;10057;59.402;17.866;2023-04-29T10:27:54;100784.91;;;10.82;47.28
19795;BME280;10057;59.402;17.866;2023-04-29T10:30:21;100782.94;;;10.87;47.49
19795;BME280;10057;59.402;17.866;2023-04-29T10:32:49;100769.72;;;10.86;46.95
19795;BME280;10057;59.402;17.866;2023-04-29T10:35:19;100775.09;;;10.84;46.71
19795;BME280;10057;59.402;17.866;2023-04-29T10:37:49;100763.88;;;10.76;45.89
19795;BME280;10057;59.402;17.866;2023-04-29T10:40:19;100752.81;;;10.65;45.54
19795;BME280;10057;59.402;17.866;2023-04-29T10:42:49;100758.34;;;10.59;45.41
19795;BME280;10057;59.402;17.866;2023-04-29T10:45:20;100753.22;;;10.54;45.65
19795;BME280;10057;59.402;17.866;2023-04-29T10:53:14;100742.19;;;10.41;45.15
19795;BME280;10057;59.402;17.866;2023-04-29T10:55:42;100738.59;;;10.42;44.97
19795;BME280;10057;59.402;17.866;2023-04-29T10:58:52;100737.72;;;10.43;45.04
19795;BME280;10057;59.402;17.866;2023-04-29T11:01:17;100741.41;;;10.39;44.96
19795;BME280;10057;59.402;17.866;2023-04-29T11:04:04;100741.53;;;10.35;44.88
19795;BME280;10057;59.402;17.866;2023-04-29T11:09:11;100725.06;;;10.25;44.69
19795;BME280;10057;59.402;17.866;2023-04-29T11:14:11;100718.47;;;10.12;44.30
19795;BME280;10057;59.402;17.866;2023-04-29T11:16:46;100718.72;;;10.06;44.27
19795;BME280;10057;59.402;17.866;2023-04-29T11:19:15;100713.63;;;10.00;44.05
19795;BME280;10057;59.402;17.866;2023-04-29T11:21:45;100713.72;;;9.96;44.19
19795;BME280;10057;59.402;17.866;2023-04-29T11:24:13;100720.06;;;9.92;43.96
19795;BME280;10057;59.402;17.866;2023-04-29T11:26:42;100714.00;;;9.89;44.12
19795;BME280;10057;59.402;17.866;2023-04-29T11:29:09;100711.47;;;9.84;43.58
19795;BME280;10057;59.402;17.866;2023-04-29T11:31:36;100698.47;;;9.78;43.19
19795;BME280;10057;59.402;17.866;2023-04-29T11:34:06;100707.56;;;9.71;42.95
19795;BME280;10057;59.402;17.866;2023-04-29T11:36:33;100700.59;;;9.67;42.81
19795;BME280;10057;59.402;17.866;2023-04-29T11:39:02;100706.00;;;9.64;43.29
19795;BME280;10057;59.402;17.866;2023-04-29T11:41:30;100691.09;;;9.61;43.37
19795;BME280;10057;59.402;17.866;2023-04-29T11:43:59;100695.47;;;9.62;42.35
19795;BME280;10057;59.402;17.866;2023-04-29T11:46:32;100697.25;;;9.62;42.45
19795;BME280;10057;59.402;17.866;2023-04-29T11:49:00;100694.78;;;9.57;42.31
19795;BME280;10057;59.402;17.866;2023-04-29T11:51:27;100686.03;;;9.54;41.98
19795;BME280;10057;59.402;17.866;2023-04-29T11:53:55;100688.00;;;9.48;41.78
19795;BME280;10057;59.402;17.866;2023-04-29T11:56:24;100696.03;;;9.45;41.82
19795;BME280;10057;59.402;17.866;2023-04-29T11:58:55;100688.09;;;9.45;41.52
19795;BME280;10057;59.402;17.866;2023-04-29T12:01:26;100707.66;;;9.41;41.83
19795;BME280;10057;59.402;17.866;2023-04-29T12:03:57;100691.97;;;9.35;41.56
19795;BME280;10057;59.402;17.866;2023-04-29T12:06:28;100698.38;;;9.28;42.16
19795;BME280;10057;59.402;17.866;2023-04-29T12:08:58;100688.91;;;9.21;42.08
19795;BME280;10057;59.402;17.866;2023-04-29T12:11:24;100697.03;;;9.15;41.89
19795;BME280;10057;59.402;17.866;2023-04-29T12:13:52;100687.63;;;9.06;42.08
19795;BME280;10057;59.402;17.866;2023-04-29T12:16:20;100715.16;;;8.99;42.16
19795;BME280;10057;59.402;17.866;2023-04-29T12:18:52;100713.59;;;8.93;42.08
19795;BME280;10057;59.402;17.866;2023-04-29T12:21:20;100690.81;;;8.89;42.69
19795;BME280;10057;59.402;17.866;2023-04-29T12:23:47;100688.28;;;8.85;43.08
19795;BME280;10057;59.402;17.866;2023-04-29T12:26:15;100682.03;;;8.87;43.13
19795;BME280;10057;59.402;17.866;2023-04-29T12:28:42;100692.53;;;8.90;43.40
19795;BME280;10057;59.402;17.866;2023-04-29T12:31:09;100698.53;;;8.95;43.36
19795;BME280;10057;59.402;17.866;2023-04-29T12:33:42;100703.63;;;9.01;43.44
19795;BME280;10057;59.402;17.866;2023-04-29T12:36:16;100722.06;;;9.05;43.58
19795;BME280;10057;59.402;17.866;2023-04-29T12:38:44;100715.03;;;9.04;44.38
19795;BME280;10057;59.402;17.866;2023-04-29T12:41:13;100718.63;;;9.02;44.87
19795;BME280;10057;59.402;17.866;2023-04-29T12:43:42;100715.81;;;9.07;44.63
19795;BME280;10057;59.402;17.866;2023-04-29T12:46:09;100712.25;;;9.08;44.75
19795;BME280;10057;59.402;17.866;2023-04-29T12:48:40;100723.59;;;9.12;44.88
19795;BME280;10057;59.402;17.866;2023-04-29T12:51:09;100705.81;;;9.17;45.35
19795;BME280;10057;59.402;17.866;2023-04-29T12:53:37;100707.44;;;9.21;45.58
19795;BME280;10057;59.402;17.866;2023-04-29T12:56:05;100707.34;;;9.24;46.03
19795;BME280;10057;59.402;17.866;2023-04-29T12:58:32;100699.50;;;9.21;45.95
19795;BME280;10057;59.402;17.866;2023-04-29T13:01:02;100690.72;;;9.19;45.99
19795;BME280;10057;59.402;17.866;2023-04-29T13:03:28;100686.53;;;9.12;46.05
19795;BME280;10057;59.402;17.866;2023-04-29T13:05:56;100684.06;;;9.07;46.29
19795;BME280;10057;59.402;17.866;2023-04-29T13:08:24;100678.91;;;9.02;46.35
19795;BME280;10057;59.402;17.866;2023-04-29T13:10:51;100666.69;;;8.98;46.64
19795;BME280;10057;59.402;17.866;2023-04-29T13:13:19;100667.59;;;8.97;47.17
19795;BME280;10057;59.402;17.866;2023-04-29T13:15:46;100661.44;;;8.97;46.82